Allenhurst, Georgia
Current Conditions -  °F | °C
As of 6:58 AM on Friday 21 Nov 2014 (Local Time) from KLHW Reporting Station
Clear Clear  
Wind Chill: 31°   Ceiling: Unl
Heat Index: 36°   Visibility: 10mi
Dew Point: 34°   Wind: 6mph
Humidity: 92%   Direction: 330°NNW
Pressure: 30.31"   Gusts: NA
Location:  31.78°N, 81.61°W
Report Text: KLHW 211158Z AUTO 33005KT 10SM CLR 02/01 A3031 RMK AO2 SLP267 T00200009 10047 20013 52014
Loading
Personal Weather Stations






























Interactive Weather Map New forecast layout! Learn more

10-Day Weather Forecast

Advertisements
Track Severe Weather on mobile